IFJ weather

Ísafjörður Airport
Ísafjörður, Westfjords, Iceland

Public forecast

Using degrees Celsius for public forecast. Weather courtesy of forecast.io.

METAR (pilot weather report)

Retrieved 2019/03/18 17:00 UTC (46 minutes ago):

BIIS 181700Z 22008G18KT 180V260 9999 -SHRA FEW016 OVC035 07/02 Q0984

TAF (pilot weather forecast)

Closest forecast is Reykjavik Airport, 119.6 nm (221.6 km) SSE. Retrieved 2019/03/18 15:41 UTC (2 hours ago):

TAF BIRK 181335Z 1815/1915 17020G30KT 9999 -RA BKN015 OVC022 TX07/1816Z TN03/1903Z TEMPO 1815/1900 5000 RADZ BKN008 OVC012 BECMG 1823/1901 23018KT SHRA BKN015CB TEMPO 1900/1915 5000 SHRA BKN011CB